Time;durP1;ratioP1;P1;durP2;ratioP2;P2;SDS_P1;SDS_P2;PMS_P1;PMS_P2;Temp;Humidity;BMP_temperature;BMP_pressure;BME280_temperature;BME280_humidity;BME280_pressure;Samples;Min_cycle;Max_cycle;Signal;HPM_P1;HPM_P2
2023/12/11 00:00:22;;;;;;;1.10;0.68;;;6.90;99.90;;;;;;4430624;32;20053;-61
2023/12/11 00:02:47;;;;;;;0.40;0.40;;;6.90;99.90;;;;;;4431661;32;20132;-61
2023/12/11 00:05:13;;;;;;;0.30;0.30;;;6.80;99.90;;;;;;4429720;32;20592;-60
2023/12/11 00:07:38;;;;;;;1.87;0.90;;;6.80;99.90;;;;;;4430282;32;20133;-61
2023/12/11 00:10:04;;;;;;;4.05;1.40;;;6.80;99.90;;;;;;4432967;32;20117;-60
2023/12/11 00:12:29;;;;;;;4.65;1.67;;;6.80;99.90;;;;;;4433290;32;20072;-60
2023/12/11 00:14:55;;;;;;;0.40;0.40;;;6.90;99.90;;;;;;4432832;32;20061;-59
2023/12/11 00:17:21;;;;;;;0.95;0.60;;;6.90;99.90;;;;;;4433774;32;20434;-61
2023/12/11 00:19:46;;;;;;;1.00;0.88;;;6.80;99.90;;;;;;4427501;32;20089;-59
2023/12/11 00:22:12;;;;;;;0.30;0.30;;;6.80;99.90;;;;;;4435055;32;20069;-60
2023/12/11 00:24:37;;;;;;;33.20;1.25;;;6.80;99.90;;;;;;4433615;32;20526;-60
2023/12/11 00:27:03;;;;;;;0.30;0.30;;;6.70;99.90;;;;;;4435724;32;20086;-59
2023/12/11 00:29:28;;;;;;;1.45;1.02;;;6.60;99.90;;;;;;4429755;32;20065;-58
2023/12/11 00:31:54;;;;;;;0.43;0.43;;;6.70;99.90;;;;;;4428174;32;20656;-61
2023/12/11 00:34:19;;;;;;;0.43;0.40;;;6.70;99.90;;;;;;4431117;32;20074;-61
2023/12/11 00:36:46;;;;;;;0.30;0.30;;;6.70;99.90;;;;;;4431647;32;20538;-61
2023/12/11 00:39:13;;;;;;;0.65;0.65;;;6.70;99.90;;;;;;4431650;32;20441;-61
2023/12/11 00:41:38;;;;;;;0.35;0.35;;;6.70;99.90;;;;;;4430812;32;20529;-59
2023/12/11 00:44:04;;;;;;;0.57;0.50;;;6.60;99.90;;;;;;4434584;32;20077;-61
2023/12/11 00:46:29;;;;;;;0.55;0.55;;;6.60;99.90;;;;;;4432223;32;20457;-61
2023/12/11 00:48:54;;;;;;;0.43;0.43;;;6.60;99.90;;;;;;4431884;32;20073;-61
2023/12/11 00:51:21;;;;;;;0.30;0.30;;;6.50;99.90;;;;;;4438236;32;20541;-61
2023/12/11 00:53:47;;;;;;;9.43;1.37;;;6.60;99.90;;;;;;4437022;32;20556;-61
2023/12/11 00:56:13;;;;;;;0.40;0.40;;;6.60;99.90;;;;;;4419562;32;20080;-61
2023/12/11 00:58:38;;;;;;;0.25;0.25;;;6.50;99.90;;;;;;4437058;32;20068;-61
2023/12/11 01:01:04;;;;;;;0.40;0.40;;;6.50;99.90;;;;;;4439891;32;20825;-61
2023/12/11 01:03:30;;;;;;;0.40;0.40;;;6.50;99.90;;;;;;4420734;32;20086;-61
2023/12/11 01:05:55;;;;;;;0.40;0.40;;;6.50;99.90;;;;;;4433761;32;20077;-60
2023/12/11 01:08:21;;;;;;;0.50;0.50;;;6.40;99.90;;;;;;4418568;32;20464;-61
2023/12/11 01:10:47;;;;;;;0.35;0.35;;;6.50;99.90;;;;;;4436479;32;20085;-60
2023/12/11 01:13:12;;;;;;;0.50;0.50;;;6.50;99.90;;;;;;4435114;32;20086;-61
2023/12/11 01:15:38;;;;;;;0.62;0.62;;;6.50;99.90;;;;;;4436833;32;20512;-60
2023/12/11 01:18:03;;;;;;;0.60;0.60;;;6.40;99.90;;;;;;4442391;32;20057;-59
2023/12/11 01:20:29;;;;;;;0.30;0.30;;;6.40;99.90;;;;;;4429787;32;20080;-61
2023/12/11 01:22:54;;;;;;;10.88;1.15;;;6.40;99.90;;;;;;4439029;32;20056;-61
2023/12/11 01:25:19;;;;;;;0.47;0.47;;;6.40;99.90;;;;;;4441022;32;20518;-60
2023/12/11 01:27:45;;;;;;;0.90;0.80;;;6.40;99.90;;;;;;4438609;32;20097;-60
2023/12/11 01:30:11;;;;;;;0.40;0.40;;;6.40;99.90;;;;;;4442764;32;20081;-61
2023/12/11 01:32:36;;;;;;;0.35;0.35;;;6.50;99.90;;;;;;4441581;32;20115;-61
2023/12/11 01:35:02;;;;;;;0.50;0.50;;;6.50;99.90;;;;;;4445893;32;20065;-59
2023/12/11 01:37:27;;;;;;;0.40;0.40;;;6.50;99.90;;;;;;4439512;32;20074;-61
2023/12/11 01:39:53;;;;;;;0.55;0.50;;;6.50;99.90;;;;;;4436674;32;20089;-60
2023/12/11 01:42:18;;;;;;;0.57;0.57;;;6.50;99.90;;;;;;4431384;32;20123;-61
2023/12/11 01:44:44;;;;;;;0.20;0.20;;;6.50;99.90;;;;;;4431499;32;20061;-61
2023/12/11 01:47:09;;;;;;;0.40;0.40;;;6.60;99.90;;;;;;4431061;32;20074;-61
2023/12/11 01:49:36;;;;;;;0.85;0.80;;;6.60;99.90;;;;;;4435258;32;20575;-61
2023/12/11 01:52:03;;;;;;;1.17;0.75;;;6.70;99.90;;;;;;4430675;32;20082;-61
2023/12/11 01:54:29;;;;;;;0.25;0.25;;;6.70;99.90;;;;;;4431918;32;20061;-59
2023/12/11 01:56:54;;;;;;;0.28;0.28;;;6.70;99.90;;;;;;4418815;32;20085;-59
2023/12/11 01:59:20;;;;;;;5.22;3.25;;;6.70;99.90;;;;;;4429026;32;20073;-58
2023/12/11 02:04:11;;;;;;;0.37;0.37;;;6.80;99.90;;;;;;4430042;32;20100;-61
2023/12/11 02:06:36;;;;;;;0.30;0.30;;;6.80;99.90;;;;;;4432749;32;20082;-61
2023/12/11 02:09:02;;;;;;;0.30;0.30;;;6.90;99.90;;;;;;4422416;32;20073;-59
2023/12/11 02:11:28;;;;;;;0.60;0.60;;;6.90;99.90;;;;;;4416270;32;20077;-60
2023/12/11 02:13:53;;;;;;;8.57;1.02;;;6.90;99.90;;;;;;4427817;32;20423;-60
2023/12/11 02:16:18;;;;;;;0.30;0.30;;;6.90;99.90;;;;;;4427645;32;20116;-61
2023/12/11 02:18:44;;;;;;;0.50;0.50;;;7.00;99.90;;;;;;4431526;32;20408;-60
2023/12/11 02:21:11;;;;;;;3.37;0.62;;;7.00;99.90;;;;;;4431133;32;20068;-61
2023/12/11 02:23:49;;;;;;;0.20;0.20;;;7.00;99.90;;;;;;4430319;32;20546;-61
2023/12/11 02:26:16;;;;;;;0.30;0.30;;;7.00;99.90;;;;;;4431262;32;20061;-58
2023/12/11 02:28:42;;;;;;;0.50;0.50;;;7.00;99.90;;;;;;4430510;32;20124;-61
2023/12/11 02:31:08;;;;;;;0.28;0.28;;;7.00;99.90;;;;;;4415950;32;20081;-61
2023/12/11 02:33:33;;;;;;;1.80;0.70;;;7.10;99.90;;;;;;4417088;32;20421;-60
2023/12/11 02:35:59;;;;;;;0.30;0.30;;;7.10;99.90;;;;;;4416164;32;20061;-59
2023/12/11 02:38:24;;;;;;;0.32;0.32;;;7.10;99.90;;;;;;4431423;32;20068;-60
2023/12/11 02:40:50;;;;;;;0.60;0.60;;;7.20;99.90;;;;;;4411956;32;20069;-58
2023/12/11 02:43:15;;;;;;;0.40;0.40;;;7.20;99.90;;;;;;4425424;32;20081;-59
2023/12/11 02:45:42;;;;;;;0.30;0.30;;;7.20;99.90;;;;;;4428691;32;20069;-60
2023/12/11 02:48:08;;;;;;;0.30;0.30;;;7.30;99.90;;;;;;4401991;32;20112;-60
2023/12/11 02:50:34;;;;;;;0.40;0.40;;;7.30;99.90;;;;;;4425250;32;20069;-60
2023/12/11 02:53:01;;;;;;;0.90;0.70;;;7.30;99.90;;;;;;4416196;32;20138;-59
2023/12/11 02:55:27;;;;;;;0.90;0.77;;;7.30;99.90;;;;;;4405219;32;20050;-60
2023/12/11 02:58:01;;;;;;;1.35;0.62;;;7.30;99.90;;;;;;4427366;32;20561;-60
2023/12/11 03:00:27;;;;;;;0.25;0.25;;;7.40;99.90;;;;;;4428787;32;20072;-59
2023/12/11 03:02:53;;;;;;;0.73;0.73;;;7.40;99.90;;;;;;4417024;32;20078;-59
2023/12/11 03:05:19;;;;;;;0.45;0.45;;;7.40;99.90;;;;;;4413426;32;20073;-59
2023/12/11 03:07:44;;;;;;;0.50;0.50;;;7.50;99.90;;;;;;4416987;32;20069;-61
2023/12/11 03:10:10;;;;;;;0.50;0.50;;;7.50;99.90;;;;;;4426239;32;20133;-60
2023/12/11 03:12:36;;;;;;;0.30;0.30;;;7.60;99.90;;;;;;4415172;32;20507;-60
2023/12/11 03:15:05;;;;;;;0.47;0.47;;;7.60;99.90;;;;;;4405040;32;20078;-60
2023/12/11 03:17:30;;;;;;;0.30;0.30;;;7.60;99.90;;;;;;4413399;32;20077;-60
2023/12/11 03:19:56;;;;;;;0.47;0.47;;;7.60;99.90;;;;;;4415964;32;20241;-60
2023/12/11 03:22:24;;;;;;;0.40;0.40;;;7.60;99.90;;;;;;4426838;32;20123;-60
2023/12/11 03:24:50;;;;;;;0.30;0.30;;;7.60;99.90;;;;;;4427596;32;20295;-60
2023/12/11 03:27:16;;;;;;;0.43;0.43;;;7.70;99.90;;;;;;4415107;32;20086;-60
2023/12/11 03:29:42;;;;;;;1.95;1.23;;;7.70;99.90;;;;;;4428136;32;20057;-60
2023/12/11 03:32:07;;;;;;;0.22;0.22;;;7.70;99.90;;;;;;4426795;32;20112;-61
2023/12/11 03:34:33;;;;;;;1.23;0.90;;;7.70;99.90;;;;;;4429369;32;20078;-60
2023/12/11 03:36:58;;;;;;;1.98;1.17;;;7.70;99.90;;;;;;4426278;32;20077;-60
2023/12/11 03:39:25;;;;;;;0.30;0.30;;;7.70;99.90;;;;;;4416111;32;20112;-60
2023/12/11 03:41:50;;;;;;;1.02;0.43;;;7.80;99.90;;;;;;4411464;32;20061;-61
2023/12/11 03:44:16;;;;;;;1.73;0.93;;;7.80;99.90;;;;;;4416664;32;20061;-61
2023/12/11 03:46:41;;;;;;;0.40;0.40;;;7.90;99.90;;;;;;4426640;32;20065;-61
2023/12/11 03:49:07;;;;;;;6.87;1.75;;;7.90;99.90;;;;;;4429807;32;20113;-61
2023/12/11 03:51:32;;;;;;;0.28;0.28;;;8.00;99.90;;;;;;4426240;32;20123;-60
2023/12/11 03:54:00;;;;;;;0.62;0.62;;;8.00;99.90;;;;;;4431168;32;20108;-59
2023/12/11 03:56:27;;;;;;;0.32;0.32;;;8.00;99.90;;;;;;4416893;32;20073;-61
2023/12/11 03:58:53;;;;;;;0.30;0.30;;;8.10;99.90;;;;;;4432249;32;20103;-59
2023/12/11 04:01:18;;;;;;;0.40;0.40;;;8.10;99.90;;;;;;4431202;32;20072;-60
2023/12/11 04:03:44;;;;;;;0.32;0.32;;;8.10;99.90;;;;;;4430882;32;20057;-60
2023/12/11 04:06:09;;;;;;;0.60;0.60;;;8.20;99.90;;;;;;4414936;32;20061;-60
2023/12/11 04:08:39;;;;;;;0.30;0.30;;;8.20;99.90;;;;;;4430877;32;20099;-60
2023/12/11 04:11:05;;;;;;;0.73;0.73;;;8.20;99.90;;;;;;4427537;32;20080;-60
2023/12/11 04:13:30;;;;;;;0.43;0.43;;;8.20;99.90;;;;;;4429683;32;20115;-59
2023/12/11 04:15:56;;;;;;;1.27;1.12;;;8.20;99.90;;;;;;4429186;32;20077;-57
2023/12/11 04:18:21;;;;;;;4.70;0.55;;;8.30;99.90;;;;;;4428839;32;21100;-59
2023/12/11 04:20:47;;;;;;;0.40;0.40;;;8.20;99.90;;;;;;4433479;32;20110;-61
2023/12/11 04:23:12;;;;;;;0.30;0.30;;;8.30;99.90;;;;;;4431728;32;20544;-60
2023/12/11 04:25:38;;;;;;;0.20;0.20;;;8.30;99.90;;;;;;4432534;32;20459;-59
2023/12/11 04:28:03;;;;;;;0.62;0.57;;;8.30;99.90;;;;;;4431538;32;20070;-60
2023/12/11 04:30:29;;;;;;;1.25;1.12;;;8.40;99.90;;;;;;4428105;32;20062;-60
2023/12/11 04:32:54;;;;;;;0.35;0.32;;;8.40;99.90;;;;;;4427288;32;20085;-61
2023/12/11 04:35:20;;;;;;;0.20;0.20;;;8.40;99.90;;;;;;4429449;32;20078;-60
2023/12/11 04:37:45;;;;;;;0.90;0.82;;;8.40;99.90;;;;;;4430570;32;20074;-59
2023/12/11 04:40:11;;;;;;;0.52;0.52;;;8.40;99.90;;;;;;4428324;32;20081;-60
2023/12/11 04:42:36;;;;;;;0.30;0.30;;;8.40;99.90;;;;;;4429302;32;20068;-60
2023/12/11 04:45:02;;;;;;;4.22;0.68;;;8.40;99.90;;;;;;4428600;32;20073;-61
2023/12/11 04:47:27;;;;;;;0.45;0.45;;;8.40;99.90;;;;;;4432904;32;20069;-60
2023/12/11 04:49:53;;;;;;;1.02;0.93;;;8.40;99.90;;;;;;4433205;32;20081;-61
2023/12/11 04:52:18;;;;;;;8.88;1.37;;;8.40;99.90;;;;;;4430008;32;20061;-60
2023/12/11 04:54:44;;;;;;;0.75;0.50;;;8.40;99.90;;;;;;4429723;32;20086;-60
2023/12/11 04:57:09;;;;;;;0.30;0.30;;;8.40;99.90;;;;;;4431911;32;20081;-59
2023/12/11 04:59:35;;;;;;;0.40;0.40;;;8.40;99.90;;;;;;4433809;32;20477;-60
2023/12/11 05:02:00;;;;;;;0.90;0.77;;;8.30;99.90;;;;;;4426656;32;20077;-60
2023/12/11 05:04:26;;;;;;;4.25;1.12;;;8.40;99.90;;;;;;4433776;32;20073;-60
2023/12/11 05:06:51;;;;;;;1.55;1.40;;;8.40;99.90;;;;;;4430770;32;20061;-60
2023/12/11 05:09:16;;;;;;;0.30;0.30;;;8.40;99.90;;;;;;4432279;32;20078;-60
2023/12/11 05:11:42;;;;;;;0.50;0.50;;;8.40;99.90;;;;;;4431745;32;20457;-60
2023/12/11 05:14:07;;;;;;;1.90;1.25;;;8.40;99.90;;;;;;4431555;32;20385;-61
2023/12/11 05:16:33;;;;;;;0.40;0.40;;;8.40;99.90;;;;;;4426993;32;21285;-60
2023/12/11 05:18:58;;;;;;;0.80;0.52;;;8.30;99.90;;;;;;4429323;32;20066;-60
2023/12/11 05:21:24;;;;;;;0.40;0.40;;;8.40;99.90;;;;;;4423325;32;20061;-59
2023/12/11 05:23:51;;;;;;;0.30;0.30;;;8.40;99.90;;;;;;4414856;32;20073;-59
2023/12/11 05:26:19;;;;;;;1.77;0.70;;;8.40;99.90;;;;;;4434203;32;20066;-60
2023/12/11 05:28:44;;;;;;;0.20;0.20;;;8.40;99.90;;;;;;4432068;32;20078;-60
2023/12/11 05:31:10;;;;;;;0.32;0.32;;;8.30;99.90;;;;;;4429909;32;20123;-59
2023/12/11 05:33:35;;;;;;;1.90;1.17;;;8.30;99.90;;;;;;4431844;32;20073;-60
2023/12/11 05:36:01;;;;;;;0.65;0.65;;;8.30;99.90;;;;;;4430138;32;20111;-60
2023/12/11 05:38:26;;;;;;;0.30;0.30;;;8.30;99.90;;;;;;4431050;32;20525;-60
2023/12/11 05:40:52;;;;;;;1.30;0.90;;;8.20;99.90;;;;;;4427312;32;20512;-60
2023/12/11 05:43:17;;;;;;;2.12;0.98;;;8.20;99.90;;;;;;4427466;32;20548;-59
2023/12/11 05:45:42;;;;;;;0.22;0.22;;;8.20;99.90;;;;;;4428117;32;20164;-60
2023/12/11 05:48:08;;;;;;;0.30;0.30;;;8.10;99.90;;;;;;4427513;32;20112;-59
2023/12/11 05:50:33;;;;;;;0.40;0.40;;;8.10;99.90;;;;;;4429758;32;20423;-59
2023/12/11 05:52:59;;;;;;;3.22;1.33;;;8.00;99.90;;;;;;4431369;32;20528;-60
2023/12/11 05:55:24;;;;;;;0.32;0.32;;;8.00;99.90;;;;;;4429970;32;20090;-61
2023/12/11 05:57:50;;;;;;;0.90;0.77;;;8.00;99.90;;;;;;4429566;32;20102;-60
2023/12/11 06:00:16;;;;;;;0.37;0.37;;;8.10;99.90;;;;;;4430504;32;20066;-60
2023/12/11 06:02:41;;;;;;;0.80;0.77;;;8.00;99.90;;;;;;4428246;32;20098;-60
2023/12/11 06:05:08;;;;;;;0.30;0.30;;;8.00;99.90;;;;;;4431258;32;20309;-60
2023/12/11 06:07:34;;;;;;;1.27;1.08;;;8.00;99.90;;;;;;4417878;32;20074;-61
2023/12/11 06:09:59;;;;;;;0.30;0.30;;;8.00;99.90;;;;;;4429202;32;20145;-60
2023/12/11 06:12:25;;;;;;;5.15;2.15;;;7.90;99.90;;;;;;4427458;32;20598;-60
2023/12/11 06:14:50;;;;;;;0.37;0.37;;;8.00;99.90;;;;;;4412159;32;20077;-59
2023/12/11 06:17:17;;;;;;;7.68;0.68;;;8.00;99.90;;;;;;4429367;32;20081;-60
2023/12/11 06:19:42;;;;;;;9.30;1.05;;;8.00;99.90;;;;;;4425241;32;20588;-61
2023/12/11 06:22:08;;;;;;;0.80;0.50;;;8.00;99.90;;;;;;4407912;32;20089;-61
2023/12/11 06:24:33;;;;;;;0.35;0.35;;;8.00;99.90;;;;;;4429234;32;20383;-60
2023/12/11 06:26:59;;;;;;;0.30;0.30;;;8.00;99.90;;;;;;4394001;32;20834;-59
2023/12/11 06:29:26;;;;;;;0.57;0.57;;;8.00;99.90;;;;;;4422914;32;20525;-60
2023/12/11 06:31:51;;;;;;;0.35;0.35;;;8.00;99.90;;;;;;4415066;32;20758;-60
2023/12/11 06:34:17;;;;;;;4.12;0.80;;;8.00;99.90;;;;;;4414337;32;20069;-60
2023/12/11 06:36:43;;;;;;;0.30;0.30;;;8.00;99.90;;;;;;4418452;32;20077;-60
2023/12/11 06:39:08;;;;;;;0.40;0.40;;;8.10;99.90;;;;;;4414249;32;21557;-59
2023/12/11 06:41:36;;;;;;;0.62;0.62;;;8.10;99.90;;;;;;4418301;32;20427;-60
2023/12/11 06:44:01;;;;;;;0.28;0.28;;;8.10;99.90;;;;;;4420490;32;20077;-60
2023/12/11 06:46:29;;;;;;;0.28;0.28;;;8.10;99.90;;;;;;4416813;32;20085;-59
2023/12/11 06:48:55;;;;;;;0.45;0.45;;;8.20;99.90;;;;;;4417030;32;20081;-60
2023/12/11 06:51:21;;;;;;;0.30;0.30;;;8.20;99.90;;;;;;4416814;32;20281;-60
2023/12/11 06:53:46;;;;;;;4.35;0.40;;;8.20;99.90;;;;;;4407038;32;20133;-57
2023/12/11 06:56:19;;;;;;;0.98;0.70;;;8.20;99.90;;;;;;4400837;32;20517;-59
2023/12/11 06:58:45;;;;;;;0.30;0.30;;;8.20;99.90;;;;;;4394870;32;20490;-60
2023/12/11 07:01:12;;;;;;;2.33;0.73;;;8.20;99.90;;;;;;4368482;32;20097;-60
2023/12/11 07:03:40;;;;;;;0.62;0.40;;;8.20;99.90;;;;;;4377774;32;20120;-60
2023/12/11 07:06:05;;;;;;;0.30;0.30;;;8.30;99.90;;;;;;4392584;32;20085;-60
2023/12/11 07:08:31;;;;;;;5.47;0.50;;;8.30;99.90;;;;;;4396872;32;20391;-60
2023/12/11 07:10:56;;;;;;;1.37;1.02;;;8.20;99.90;;;;;;4392534;32;20126;-60
2023/12/11 07:13:22;;;;;;;0.35;0.35;;;8.20;99.90;;;;;;4389245;32;20081;-60
2023/12/11 07:15:47;;;;;;;0.95;0.60;;;8.20;99.90;;;;;;4390414;32;20928;-61
2023/12/11 07:18:13;;;;;;;0.50;0.50;;;8.20;99.90;;;;;;4393947;32;20191;-60
2023/12/11 07:20:40;;;;;;;1.45;1.33;;;8.20;99.90;;;;;;4380817;32;20795;-59
2023/12/11 07:23:07;;;;;;;4.12;0.98;;;8.30;99.90;;;;;;4373489;32;20814;-59
2023/12/11 07:25:33;;;;;;;4.00;2.05;;;8.30;99.90;;;;;;4392132;32;20178;-60
2023/12/11 07:27:59;;;;;;;0.22;0.22;;;8.20;99.90;;;;;;4381056;32;20092;-59
2023/12/11 07:30:25;;;;;;;1.35;0.95;;;8.30;99.90;;;;;;4396863;32;20173;-60
2023/12/11 07:32:50;;;;;;;2.45;0.57;;;8.30;99.90;;;;;;4379481;32;20096;-60
2023/12/11 07:35:16;;;;;;;3.60;1.17;;;8.30;99.90;;;;;;4393166;32;20486;-60
2023/12/11 07:37:42;;;;;;;0.40;0.40;;;8.30;99.90;;;;;;4392393;32;20114;-60
2023/12/11 07:40:08;;;;;;;0.30;0.30;;;8.30;99.90;;;;;;4397491;32;20947;-61
2023/12/11 07:42:33;;;;;;;5.85;1.10;;;8.30;99.90;;;;;;4393018;32;20195;-60
2023/12/11 07:44:59;;;;;;;0.40;0.40;;;8.30;99.90;;;;;;4391095;32;20573;-60
2023/12/11 07:47:24;;;;;;;1.10;0.95;;;8.30;99.90;;;;;;4371256;32;20084;-60
2023/12/11 07:49:50;;;;;;;0.55;0.55;;;8.30;99.90;;;;;;4390410;32;20089;-60
2023/12/11 07:52:16;;;;;;;2.30;1.02;;;8.30;99.90;;;;;;4376338;32;20544;-61
2023/12/11 07:54:41;;;;;;;0.40;0.40;;;8.30;99.90;;;;;;4396569;32;20100;-60
2023/12/11 07:57:07;;;;;;;0.32;0.32;;;8.40;99.90;;;;;;4393620;32;20516;-59
2023/12/11 07:59:32;;;;;;;1.10;0.70;;;8.40;99.90;;;;;;4402028;32;20088;-59
2023/12/11 08:01:58;;;;;;;2.45;0.70;;;8.40;99.90;;;;;;4397509;32;20645;-60
2023/12/11 08:04:23;;;;;;;2.20;1.17;;;8.40;99.90;;;;;;4382864;32;20077;-60
2023/12/11 08:06:50;;;;;;;0.30;0.30;;;8.40;99.90;;;;;;4398924;32;20500;-60
2023/12/11 08:09:15;;;;;;;0.57;0.57;;;8.50;99.90;;;;;;4391278;32;20113;-59
2023/12/11 08:11:41;;;;;;;0.30;0.30;;;8.50;99.90;;;;;;4390708;32;20873;-61
2023/12/11 08:14:07;;;;;;;1.67;0.68;;;8.40;99.90;;;;;;4398809;32;21038;-61
2023/12/11 08:16:32;;;;;;;1.10;0.45;;;8.50;99.90;;;;;;4372530;32;20089;-61
2023/12/11 08:18:58;;;;;;;0.47;0.47;;;8.50;99.90;;;;;;4372386;32;20451;-59
2023/12/11 08:21:23;;;;;;;0.73;0.73;;;8.50;99.90;;;;;;4370980;32;20112;-58
2023/12/11 08:23:50;;;;;;;0.25;0.25;;;8.50;99.90;;;;;;4397994;32;20104;-60
2023/12/11 08:26:18;;;;;;;0.40;0.40;;;8.40;99.90;;;;;;4384298;32;20096;-60
2023/12/11 08:28:43;;;;;;;0.30;0.30;;;8.50;99.90;;;;;;4377740;32;20526;-58
2023/12/11 08:31:09;;;;;;;0.50;0.50;;;8.50;99.90;;;;;;4377974;32;20081;-60
2023/12/11 08:33:34;;;;;;;0.50;0.50;;;8.50;99.90;;;;;;4391705;32;21531;-61
2023/12/11 08:36:00;;;;;;;0.37;0.37;;;8.50;99.90;;;;;;4404246;32;20695;-61
2023/12/11 08:38:26;;;;;;;1.85;0.95;;;8.50;99.90;;;;;;4401412;32;20102;-61
2023/12/11 08:40:52;;;;;;;0.20;0.20;;;8.50;99.90;;;;;;4391134;32;20925;-60
2023/12/11 08:43:17;;;;;;;0.30;0.30;;;8.50;99.90;;;;;;4404505;32;21358;-61
2023/12/11 08:45:43;;;;;;;0.73;0.73;;;8.60;99.90;;;;;;4405768;32;21466;-61
2023/12/11 08:48:09;;;;;;;0.80;0.80;;;8.60;99.90;;;;;;4393372;32;20571;-59
2023/12/11 08:50:35;;;;;;;1.45;1.00;;;8.60;99.90;;;;;;4376242;32;20101;-60
2023/12/11 08:53:03;;;;;;;2.55;0.82;;;8.60;99.90;;;;;;4387961;32;22246;-61
2023/12/11 08:55:29;;;;;;;0.40;0.40;;;8.60;99.90;;;;;;4403550;32;20205;-61
2023/12/11 08:57:55;;;;;;;2.05;0.75;;;8.60;99.90;;;;;;4392629;32;20069;-61
2023/12/11 09:00:21;;;;;;;1.15;0.50;;;8.70;99.90;;;;;;4407847;32;20529;-60
2023/12/11 09:02:47;;;;;;;10.65;0.80;;;8.70;99.90;;;;;;4401424;32;20078;-60
2023/12/11 09:05:13;;;;;;;0.30;0.30;;;8.70;99.90;;;;;;4407344;32;20159;-60
2023/12/11 09:07:38;;;;;;;1.33;1.05;;;8.80;99.90;;;;;;4406276;32;20496;-60
2023/12/11 09:10:07;;;;;;;3.42;0.93;;;8.80;99.90;;;;;;4407615;32;20185;-60
2023/12/11 09:12:32;;;;;;;0.20;0.20;;;8.90;99.90;;;;;;4388050;32;20088;-59
2023/12/11 09:14:58;;;;;;;0.88;0.77;;;8.90;99.90;;;;;;4403411;32;21072;-60
2023/12/11 09:17:24;;;;;;;1.80;0.65;;;8.90;99.90;;;;;;4406250;32;20073;-60
2023/12/11 09:19:49;;;;;;;0.40;0.40;;;8.90;99.90;;;;;;4404259;32;20936;-60
2023/12/11 09:22:15;;;;;;;0.73;0.65;;;8.90;99.90;;;;;;4396101;32;20913;-60
2023/12/11 09:24:40;;;;;;;0.37;0.35;;;8.90;99.90;;;;;;4399820;32;22024;-60
2023/12/11 09:27:06;;;;;;;6.97;0.62;;;8.80;99.90;;;;;;4388637;32;20521;-60
2023/12/11 09:29:32;;;;;;;1.23;1.12;;;8.80;99.90;;;;;;4406296;32;20096;-61
2023/12/11 09:31:57;;;;;;;1.08;0.80;;;8.90;99.90;;;;;;4396428;32;20360;-60
2023/12/11 09:34:23;;;;;;;1.15;1.00;;;8.90;99.90;;;;;;4404145;32;20184;-59
2023/12/11 09:36:48;;;;;;;0.22;0.22;;;8.90;99.90;;;;;;4400842;32;20113;-58
2023/12/11 09:39:14;;;;;;;0.30;0.30;;;8.80;99.90;;;;;;4405700;32;20102;-59
2023/12/11 09:41:40;;;;;;;0.93;0.90;;;8.80;99.90;;;;;;4400297;32;20073;-60
2023/12/11 09:44:06;;;;;;;9.73;1.25;;;8.80;99.90;;;;;;4404379;32;20085;-59
2023/12/11 09:46:38;;;;;;;0.50;0.50;;;8.80;99.90;;;;;;4408485;32;20065;-59
2023/12/11 09:49:04;;;;;;;2.45;0.90;;;8.80;99.90;;;;;;4401967;32;20088;-55
2023/12/11 09:51:31;;;;;;;0.65;0.65;;;8.80;99.90;;;;;;4404074;32;20088;-58
2023/12/11 09:53:57;;;;;;;0.62;0.62;;;8.80;99.90;;;;;;4392013;32;20089;-58
2023/12/11 09:56:23;;;;;;;0.90;0.52;;;8.80;99.90;;;;;;4381626;32;20101;-58
2023/12/11 09:58:49;;;;;;;0.43;0.28;;;8.70;99.90;;;;;;4399676;32;20131;-60
2023/12/11 10:01:15;;;;;;;2.42;1.33;;;8.70;99.90;;;;;;4385215;32;20689;-59
2023/12/11 10:03:41;;;;;;;0.80;0.68;;;8.70;99.90;;;;;;4401908;32;20073;-59
2023/12/11 10:06:07;;;;;;;0.52;0.52;;;8.70;99.90;;;;;;4387511;32;20877;-59
2023/12/11 10:08:42;;;;;;;0.50;0.50;;;8.70;99.90;;;;;;4406481;32;20077;-59
2023/12/11 10:11:11;;;;;;;0.77;0.77;;;8.70;99.90;;;;;;4388253;32;20085;-60
2023/12/11 10:13:37;;;;;;;0.40;0.40;;;8.70;99.90;;;;;;4401911;32;20065;-58
2023/12/11 10:16:03;;;;;;;0.30;0.30;;;8.70;99.90;;;;;;4400276;32;20194;-59
2023/12/11 10:18:29;;;;;;;0.40;0.40;;;8.60;99.90;;;;;;4394956;32;21324;-60
2023/12/11 10:20:57;;;;;;;0.40;0.40;;;8.60;99.90;;;;;;4398952;32;21588;-60
2023/12/11 10:23:23;;;;;;;0.43;0.43;;;8.60;99.90;;;;;;4384060;32;21740;-57
2023/12/11 10:25:51;;;;;;;24.52;1.40;;;8.60;99.90;;;;;;4383629;32;20171;-60
2023/12/11 10:28:19;;;;;;;2.92;0.98;;;8.50;99.90;;;;;;4380462;32;20200;-60
2023/12/11 10:30:59;;;;;;;0.22;0.22;;;8.50;99.90;;;;;;4388865;32;20073;-60
2023/12/11 10:33:26;;;;;;;0.70;0.57;;;8.50;99.90;;;;;;4398368;32;20116;-59
2023/12/11 10:35:53;;;;;;;0.70;0.60;;;8.50;99.90;;;;;;4385659;32;20867;-60
2023/12/11 10:38:21;;;;;;;0.30;0.30;;;8.40;99.90;;;;;;4402823;32;20082;-60
2023/12/11 10:40:49;;;;;;;0.70;0.70;;;8.40;99.90;;;;;;4403224;32;20457;-61
2023/12/11 10:43:14;;;;;;;0.40;0.40;;;8.40;99.90;;;;;;4400046;32;21866;-59
2023/12/11 10:45:40;;;;;;;0.40;0.40;;;8.40;99.90;;;;;;4389675;32;20100;-61
2023/12/11 10:48:07;;;;;;;0.35;0.35;;;8.40;99.90;;;;;;4406418;32;20549;-57
2023/12/11 10:50:33;;;;;;;1.20;1.00;;;8.40;99.90;;;;;;4393448;32;20085;-62
2023/12/11 10:53:01;;;;;;;0.50;0.50;;;8.40;99.90;;;;;;4390897;32;20109;-63
2023/12/11 10:55:26;;;;;;;1.87;1.33;;;8.50;99.90;;;;;;4393751;32;20090;-60
2023/12/11 10:57:53;;;;;;;0.45;0.45;;;8.40;99.90;;;;;;4399392;32;20683;-62
2023/12/11 11:00:20;;;;;;;0.50;0.50;;;8.50;99.90;;;;;;4401339;32;20121;-62
2023/12/11 11:02:48;;;;;;;0.98;0.70;;;8.60;99.90;;;;;;4403810;32;20077;-62
2023/12/11 11:05:14;;;;;;;0.40;0.40;;;8.60;99.90;;;;;;4404867;32;20884;-61
2023/12/11 11:07:52;;;;;;;0.60;0.60;;;8.60;99.90;;;;;;4402006;32;20195;-62
2023/12/11 11:10:21;;;;;;;0.47;0.47;;;8.70;99.90;;;;;;4413358;32;20097;-61
2023/12/11 11:13:14;;;;;;;11.35;0.62;;;8.80;99.90;;;;;;4414574;32;20098;-63
2023/12/11 11:15:40;;;;;;;0.70;0.70;;;9.00;99.90;;;;;;4393931;32;20085;-61
2023/12/11 11:18:06;;;;;;;0.30;0.28;;;9.10;99.90;;;;;;4391287;32;21231;-61
2023/12/11 11:20:33;;;;;;;1.75;0.70;;;9.20;99.90;;;;;;4404063;32;20113;-60
2023/12/11 11:23:16;;;;;;;0.30;0.30;;;9.20;99.90;;;;;;4417075;32;20110;-62
2023/12/11 11:25:50;;;;;;;0.40;0.40;;;9.20;99.90;;;;;;4415265;32;20544;-63
2023/12/11 11:28:38;;;;;;;2.30;1.48;;;9.30;99.90;;;;;;4420889;32;20089;-62
2023/12/11 11:31:04;;;;;;;11.27;1.10;;;9.40;99.90;;;;;;4408185;32;20257;-60
2023/12/11 11:33:51;;;;;;;0.40;0.40;;;9.60;99.90;;;;;;4411479;32;20065;-62
2023/12/11 11:36:19;;;;;;;0.60;0.60;;;9.60;99.90;;;;;;4413236;32;20117;-62
2023/12/11 11:38:57;;;;;;;0.50;0.50;;;9.60;99.90;;;;;;4409184;32;20311;-62
2023/12/11 11:41:28;;;;;;;0.25;0.25;;;9.60;99.90;;;;;;4418964;32;20069;-62
2023/12/11 11:44:06;;;;;;;0.40;0.40;;;9.40;99.90;;;;;;4410821;32;20984;-63
2023/12/11 11:46:54;;;;;;;0.30;0.30;;;9.40;99.90;;;;;;4405044;32;20524;-62
2023/12/11 11:49:29;;;;;;;2.67;1.33;;;9.40;99.90;;;;;;4389301;32;20138;-62
2023/12/11 11:51:54;;;;;;;0.40;0.40;;;9.40;99.90;;;;;;4392636;32;84038;-62
2023/12/11 11:54:22;;;;;;;0.47;0.47;;;9.40;99.90;;;;;;4390237;32;20694;-62
2023/12/11 11:56:48;;;;;;;0.25;0.25;;;9.40;99.90;;;;;;4383488;32;21020;-64
2023/12/11 11:59:13;;;;;;;0.30;0.30;;;9.40;99.90;;;;;;4395159;32;20085;-61
2023/12/11 12:04:06;;;;;;;0.30;0.30;;;9.40;99.90;;;;;;4397890;32;20101;-62
2023/12/11 12:06:32;;;;;;;0.20;0.20;;;9.50;99.90;;;;;;4398483;32;20571;-61
2023/12/11 12:08:57;;;;;;;0.90;0.57;;;9.50;99.90;;;;;;4388265;32;20314;-61
2023/12/11 12:11:23;;;;;;;0.30;0.30;;;9.50;99.90;;;;;;4395024;32;20081;-62
2023/12/11 12:13:48;;;;;;;0.45;0.45;;;9.40;99.90;;;;;;4401115;32;20481;-62
2023/12/11 12:16:27;;;;;;;0.40;0.40;;;9.50;99.90;;;;;;4402490;32;20470;-62
2023/12/11 12:18:53;;;;;;;0.47;0.47;;;9.60;99.90;;;;;;4401276;32;20106;-62
2023/12/11 12:21:18;;;;;;;0.60;0.50;;;9.60;99.90;;;;;;4401114;32;20121;-62
2023/12/11 12:23:44;;;;;;;0.30;0.30;;;9.60;99.90;;;;;;4395885;32;20081;-61
2023/12/11 12:26:09;;;;;;;0.50;0.50;;;9.50;99.90;;;;;;4392680;32;21704;-60
2023/12/11 12:28:35;;;;;;;0.77;0.77;;;9.50;99.90;;;;;;4384991;32;20508;-61
2023/12/11 12:31:00;;;;;;;0.40;0.40;;;9.50;99.90;;;;;;4391273;32;20683;-62
2023/12/11 12:33:26;;;;;;;0.40;0.40;;;9.60;99.90;;;;;;4392435;32;20315;-61
2023/12/11 12:35:52;;;;;;;0.30;0.30;;;9.60;99.90;;;;;;4391458;32;20440;-62
2023/12/11 12:38:18;;;;;;;2.72;0.95;;;9.60;99.90;;;;;;4383732;32;20485;-60
2023/12/11 12:40:44;;;;;;;0.52;0.43;;;9.60;99.90;;;;;;4395989;32;20706;-63
2023/12/11 12:43:11;;;;;;;0.30;0.30;;;9.70;99.90;;;;;;4396919;32;20188;-62
2023/12/11 12:45:36;;;;;;;3.15;0.77;;;9.80;99.90;;;;;;4371552;32;20934;-63
2023/12/11 12:48:02;;;;;;;0.35;0.35;;;9.90;99.90;;;;;;4392884;32;20089;-60
2023/12/11 12:50:27;;;;;;;2.47;1.85;;;10.00;99.90;;;;;;4387614;32;20783;-62
2023/12/11 12:53:13;;;;;;;0.40;0.40;;;10.00;99.90;;;;;;4389490;32;20121;-61
2023/12/11 12:55:39;;;;;;;0.30;0.30;;;10.00;99.90;;;;;;4392627;32;21096;-61
2023/12/11 12:58:05;;;;;;;0.30;0.30;;;9.90;99.90;;;;;;4382926;32;20077;-61